Time;durP1;ratioP1;P1;durP2;ratioP2;P2;SDS_P1;SDS_P2;PMS_P1;PMS_P2;Temp;Humidity;BMP_temperature;BMP_pressure;BME280_temperature;BME280_humidity;BME280_pressure;Samples;Min_cycle;Max_cycle;Signal;HPM_P1;HPM_P2
2023/12/29 00:01:52;;;;;;;1.93;0.70;;;13.30;99.90;;;;;;5030154;28;20604;-75
2023/12/29 00:04:18;;;;;;;3.10;0.90;;;13.30;99.90;;;;;;5032212;28;20174;-76
2023/12/29 00:06:44;;;;;;;6.33;1.67;;;13.30;99.90;;;;;;5031077;28;20280;-75
2023/12/29 00:09:10;;;;;;;1.97;0.80;;;13.30;99.90;;;;;;5013695;28;21208;-75
2023/12/29 00:11:36;;;;;;;3.60;0.80;;;13.30;99.90;;;;;;5046389;28;20249;-75
2023/12/29 00:14:01;;;;;;;1.70;0.70;;;13.30;99.90;;;;;;5018758;28;20177;-75
2023/12/29 00:16:27;;;;;;;3.80;0.70;;;13.40;99.90;;;;;;5029544;28;20169;-75
2023/12/29 00:18:53;;;;;;;1.93;0.60;;;13.40;99.90;;;;;;5029900;28;20181;-75
2023/12/29 00:21:19;;;;;;;2.97;0.80;;;13.40;99.90;;;;;;5030009;28;20624;-76
2023/12/29 00:23:44;;;;;;;3.20;0.90;;;13.40;99.90;;;;;;5029755;28;20635;-75
2023/12/29 00:26:10;;;;;;;2.90;0.70;;;13.30;99.90;;;;;;5046071;28;20177;-75
2023/12/29 00:28:40;;;;;;;1.53;0.70;;;13.30;99.90;;;;;;5013258;28;20190;-75
2023/12/29 00:31:06;;;;;;;3.93;1.47;;;13.30;99.90;;;;;;5029628;28;21032;-75
2023/12/29 00:33:32;;;;;;;4.00;0.60;;;13.40;99.90;;;;;;5030827;28;20627;-75
2023/12/29 00:35:58;;;;;;;2.27;0.70;;;13.40;99.90;;;;;;5012714;28;20593;-76
2023/12/29 00:38:26;;;;;;;2.90;0.60;;;13.40;99.90;;;;;;5029510;28;20664;-75
2023/12/29 00:40:52;;;;;;;5.20;0.90;;;13.40;99.90;;;;;;5029254;28;20728;-76
2023/12/29 00:43:17;;;;;;;1.47;0.70;;;13.40;99.90;;;;;;5029143;28;20579;-76
2023/12/29 00:45:43;;;;;;;2.13;0.80;;;13.30;99.90;;;;;;5028989;28;20207;-76
2023/12/29 00:48:09;;;;;;;2.73;0.83;;;13.40;99.90;;;;;;5029747;28;20710;-76
2023/12/29 00:50:35;;;;;;;3.97;0.70;;;13.40;99.90;;;;;;5030547;28;20244;-76
2023/12/29 00:53:00;;;;;;;2.20;0.60;;;13.40;99.90;;;;;;5029388;28;20604;-76
2023/12/29 00:55:26;;;;;;;2.20;0.80;;;13.40;99.90;;;;;;5012499;28;20588;-75
2023/12/29 00:57:52;;;;;;;3.57;1.13;;;13.40;99.90;;;;;;5012948;28;20197;-73
2023/12/29 01:00:17;;;;;;;3.30;0.90;;;13.40;99.90;;;;;;5012961;28;20727;-74
2023/12/29 01:02:43;;;;;;;2.27;0.80;;;13.40;99.90;;;;;;5012704;28;20275;-76
2023/12/29 01:05:09;;;;;;;5.13;1.50;;;13.40;99.90;;;;;;5030139;28;20174;-74
2023/12/29 01:07:34;;;;;;;2.80;0.97;;;13.40;99.90;;;;;;5030798;28;20188;-75
2023/12/29 01:10:01;;;;;;;3.60;0.90;;;13.40;99.90;;;;;;5029139;28;20861;-75
2023/12/29 01:12:27;;;;;;;3.10;0.97;;;13.40;99.90;;;;;;5045877;28;20283;-75
2023/12/29 01:14:52;;;;;;;5.00;1.00;;;13.40;99.90;;;;;;5030134;28;21346;-75
2023/12/29 01:17:22;;;;;;;3.27;1.00;;;13.40;99.90;;;;;;4996417;28;20186;-75
2023/12/29 01:19:47;;;;;;;2.43;0.90;;;13.40;99.90;;;;;;5028996;28;20593;-75
2023/12/29 01:22:13;;;;;;;4.20;0.87;;;13.40;99.90;;;;;;5028978;28;20620;-75
2023/12/29 01:24:39;;;;;;;5.73;1.00;;;13.40;99.90;;;;;;4995481;28;20181;-75
2023/12/29 01:27:05;;;;;;;2.17;0.80;;;13.50;99.90;;;;;;5029179;28;20769;-75
2023/12/29 01:29:30;;;;;;;6.20;1.10;;;13.50;99.90;;;;;;5029079;28;20209;-75
2023/12/29 01:31:56;;;;;;;5.80;0.90;;;13.50;99.90;;;;;;5029012;28;20667;-76
2023/12/29 01:34:22;;;;;;;3.00;0.90;;;13.50;99.90;;;;;;5030263;28;20182;-75
2023/12/29 01:36:47;;;;;;;2.30;0.70;;;13.50;99.90;;;;;;5029683;28;20640;-75
2023/12/29 01:39:13;;;;;;;2.53;0.70;;;13.50;99.90;;;;;;5012414;28;20181;-75
2023/12/29 01:41:39;;;;;;;2.43;0.70;;;13.50;99.90;;;;;;5015058;28;20208;-75
2023/12/29 01:44:21;;;;;;;3.40;0.80;;;13.50;99.90;;;;;;5033910;28;20667;-75
2023/12/29 01:46:53;;;;;;;4.33;0.80;;;13.40;99.90;;;;;;5032208;28;20185;-75
2023/12/29 01:49:20;;;;;;;2.43;0.70;;;13.50;99.90;;;;;;5016171;28;20588;-75
2023/12/29 01:51:57;;;;;;;3.05;0.70;;;13.50;99.90;;;;;;5032402;28;20702;-75
2023/12/29 01:54:25;;;;;;;2.27;0.80;;;13.50;99.90;;;;;;5032370;28;20220;-75
2023/12/29 01:56:55;;;;;;;5.37;0.80;;;13.40;99.90;;;;;;5048543;28;20584;-75
2023/12/29 01:59:21;;;;;;;4.70;1.03;;;13.50;99.90;;;;;;5031992;28;20675;-75
2023/12/29 02:01:47;;;;;;;7.37;0.90;;;13.50;99.90;;;;;;5005265;28;20728;-75
2023/12/29 02:04:13;;;;;;;3.17;0.73;;;13.50;99.90;;;;;;5015867;28;20619;-75
2023/12/29 02:06:40;;;;;;;4.37;0.80;;;13.50;99.90;;;;;;5033228;28;20641;-74
2023/12/29 02:09:06;;;;;;;2.47;0.77;;;13.50;99.90;;;;;;5010251;28;20623;-75
2023/12/29 02:14:06;;;;;;;2.73;1.13;;;13.50;99.90;;;;;;4974212;28;20611;-75
2023/12/29 02:17:03;;;;;;;2.27;0.70;;;13.50;99.90;;;;;;4992391;28;20611;-76
2023/12/29 02:19:44;;;;;;;6.00;1.20;;;13.50;99.90;;;;;;4988225;28;20718;-75
2023/12/29 02:22:10;;;;;;;2.73;1.00;;;13.50;99.90;;;;;;4972536;28;21191;-75
2023/12/29 02:24:37;;;;;;;4.27;1.10;;;13.50;99.90;;;;;;4956472;28;20611;-76
2023/12/29 02:27:26;;;;;;;3.43;1.00;;;13.50;99.90;;;;;;4957171;28;20613;-75
2023/12/29 02:30:08;;;;;;;4.57;0.80;;;13.50;99.90;;;;;;4984084;28;20621;-76
2023/12/29 02:32:38;;;;;;;9.30;0.77;;;13.50;99.90;;;;;;4961258;28;20629;-76
2023/12/29 02:35:07;;;;;;;2.40;0.80;;;13.50;99.90;;;;;;4956533;28;20589;-75
2023/12/29 02:37:36;;;;;;;2.10;0.80;;;13.50;99.90;;;;;;4973011;28;20642;-75
2023/12/29 02:40:02;;;;;;;5.90;0.80;;;13.50;99.90;;;;;;4976541;28;20603;-75
2023/12/29 02:42:28;;;;;;;2.70;0.87;;;13.60;99.90;;;;;;4964847;28;20677;-75
2023/12/29 02:44:53;;;;;;;4.07;0.90;;;13.60;99.90;;;;;;4956302;28;20975;-75
2023/12/29 02:47:21;;;;;;;6.30;0.80;;;13.60;99.90;;;;;;4956833;28;20215;-75
2023/12/29 02:49:47;;;;;;;3.83;0.80;;;13.60;99.90;;;;;;4956809;28;20634;-75
2023/12/29 02:52:13;;;;;;;4.03;0.90;;;13.60;99.90;;;;;;4975518;28;20638;-75
2023/12/29 02:54:38;;;;;;;2.13;0.70;;;13.60;99.90;;;;;;4968126;28;20838;-75
2023/12/29 02:57:04;;;;;;;2.83;0.80;;;13.60;99.90;;;;;;4956653;28;20182;-75
2023/12/29 02:59:30;;;;;;;2.73;0.87;;;13.60;99.90;;;;;;4958531;28;20708;-75
2023/12/29 03:01:56;;;;;;;3.23;0.87;;;13.60;99.90;;;;;;4976510;28;20187;-75
2023/12/29 03:04:21;;;;;;;4.00;0.83;;;13.70;99.90;;;;;;4964849;28;20171;-76
2023/12/29 03:06:47;;;;;;;4.37;0.80;;;13.70;99.90;;;;;;4960757;28;20175;-75
2023/12/29 03:09:13;;;;;;;1.83;0.67;;;13.70;99.90;;;;;;4974625;28;20205;-75
2023/12/29 03:11:38;;;;;;;3.00;0.60;;;13.70;99.90;;;;;;4956331;28;20634;-75
2023/12/29 03:14:04;;;;;;;2.07;0.80;;;13.70;99.90;;;;;;4956283;28;20593;-75
2023/12/29 03:16:30;;;;;;;6.53;2.33;;;13.70;99.90;;;;;;4974197;28;20187;-75
2023/12/29 03:18:56;;;;;;;4.30;0.80;;;13.70;99.90;;;;;;4975577;28;20180;-75
2023/12/29 03:21:21;;;;;;;2.53;0.90;;;13.70;99.90;;;;;;4956359;28;20672;-76
2023/12/29 03:23:47;;;;;;;3.53;0.90;;;13.70;99.90;;;;;;4955935;28;21304;-76
2023/12/29 03:26:13;;;;;;;3.30;0.90;;;13.80;99.90;;;;;;4957575;28;20596;-75
2023/12/29 03:28:38;;;;;;;6.27;0.80;;;13.70;99.90;;;;;;4981952;28;20196;-75
2023/12/29 03:31:05;;;;;;;7.93;1.63;;;13.80;99.90;;;;;;4957404;28;20250;-76
2023/12/29 03:33:31;;;;;;;3.57;0.70;;;13.70;99.90;;;;;;4975022;28;20206;-76
2023/12/29 03:35:56;;;;;;;7.13;0.80;;;13.70;99.90;;;;;;4974874;28;21191;-76
2023/12/29 03:38:22;;;;;;;2.70;0.90;;;13.80;99.90;;;;;;4973659;28;20183;-76
2023/12/29 03:40:47;;;;;;;3.60;0.70;;;13.80;99.90;;;;;;4981402;28;20180;-76
2023/12/29 03:43:13;;;;;;;4.43;1.23;;;13.80;99.90;;;;;;4977020;28;20566;-75
2023/12/29 03:45:39;;;;;;;3.13;0.80;;;13.80;99.90;;;;;;4961304;28;20195;-75
2023/12/29 03:48:05;;;;;;;2.40;0.80;;;13.80;99.90;;;;;;4973465;28;20183;-76
2023/12/29 03:50:31;;;;;;;3.10;0.70;;;13.80;99.90;;;;;;4974524;28;20226;-76
2023/12/29 03:52:56;;;;;;;3.63;0.80;;;13.80;99.90;;;;;;4974425;28;20626;-75
2023/12/29 03:55:22;;;;;;;3.87;0.80;;;13.80;99.90;;;;;;4994138;28;20187;-75
2023/12/29 03:57:48;;;;;;;1.60;0.60;;;13.80;99.90;;;;;;4991284;28;20175;-75
2023/12/29 04:00:14;;;;;;;2.80;0.80;;;13.80;99.90;;;;;;4959651;28;20645;-74
2023/12/29 04:02:40;;;;;;;4.93;0.77;;;13.80;99.90;;;;;;4967681;28;20231;-75
2023/12/29 04:05:10;;;;;;;7.23;1.27;;;13.70;99.90;;;;;;4978997;28;21036;-75
2023/12/29 04:07:36;;;;;;;3.93;0.80;;;13.80;99.90;;;;;;4955718;28;20587;-76
2023/12/29 04:10:03;;;;;;;5.20;0.70;;;13.80;99.90;;;;;;4974525;28;20634;-75
2023/12/29 04:12:29;;;;;;;3.03;0.80;;;13.80;99.90;;;;;;4977864;28;21017;-75
2023/12/29 04:14:55;;;;;;;2.03;0.80;;;13.80;99.90;;;;;;4973062;28;20644;-75
2023/12/29 04:17:20;;;;;;;3.63;0.63;;;13.80;99.90;;;;;;4988343;28;20664;-75
2023/12/29 04:19:46;;;;;;;3.63;0.67;;;13.80;99.90;;;;;;4979654;28;20171;-75
2023/12/29 04:22:12;;;;;;;3.07;0.70;;;13.80;99.90;;;;;;4972532;28;21271;-75
2023/12/29 04:24:38;;;;;;;2.60;0.90;;;13.80;99.90;;;;;;4961942;28;20586;-76
2023/12/29 04:27:04;;;;;;;3.00;0.70;;;13.80;99.90;;;;;;4980176;28;20689;-75
2023/12/29 04:29:31;;;;;;;3.90;0.70;;;13.80;99.90;;;;;;4972455;28;20179;-75
2023/12/29 04:31:56;;;;;;;2.70;0.60;;;13.80;99.90;;;;;;4965267;28;20663;-76
2023/12/29 04:34:22;;;;;;;2.93;0.60;;;13.80;99.90;;;;;;4954849;28;20181;-76
2023/12/29 04:36:48;;;;;;;2.30;0.60;;;13.80;99.90;;;;;;4979920;28;20183;-75
2023/12/29 04:39:15;;;;;;;3.47;0.97;;;13.80;99.90;;;;;;4966113;28;20182;-75
2023/12/29 04:41:44;;;;;;;3.30;0.63;;;13.80;99.90;;;;;;4958586;28;20590;-75
2023/12/29 04:44:10;;;;;;;2.90;0.80;;;13.80;99.90;;;;;;4971904;28;20614;-75
2023/12/29 04:46:35;;;;;;;3.17;0.70;;;13.80;99.90;;;;;;4968735;28;20277;-75
2023/12/29 04:49:01;;;;;;;3.60;0.80;;;13.80;99.90;;;;;;4980481;28;20180;-75
2023/12/29 04:51:27;;;;;;;1.97;1.07;;;13.80;99.90;;;;;;4970824;28;20302;-75
2023/12/29 04:53:52;;;;;;;2.77;1.00;;;13.90;99.90;;;;;;4954355;28;20639;-76
2023/12/29 04:56:18;;;;;;;4.40;0.70;;;13.80;99.90;;;;;;4954439;28;20255;-76
2023/12/29 04:58:44;;;;;;;4.27;1.30;;;13.90;99.90;;;;;;4954878;28;20270;-75
2023/12/29 05:01:09;;;;;;;3.20;0.90;;;13.80;99.90;;;;;;4962745;28;20180;-75
2023/12/29 05:03:35;;;;;;;5.73;0.80;;;13.80;99.90;;;;;;4971437;28;20230;-75
2023/12/29 05:06:01;;;;;;;2.83;0.70;;;13.80;99.90;;;;;;4954039;28;20183;-74
2023/12/29 05:08:26;;;;;;;2.80;0.70;;;13.80;99.90;;;;;;4956643;28;20187;-76
2023/12/29 05:10:52;;;;;;;3.93;0.73;;;13.80;99.90;;;;;;4954582;28;20245;-76
2023/12/29 05:13:18;;;;;;;2.60;0.63;;;13.80;99.90;;;;;;4969631;28;20243;-75
2023/12/29 05:15:44;;;;;;;2.03;0.70;;;13.80;99.90;;;;;;4953209;28;20187;-75
2023/12/29 05:18:09;;;;;;;2.80;0.70;;;13.80;99.90;;;;;;4971439;28;20595;-76
2023/12/29 05:20:36;;;;;;;2.37;0.70;;;13.80;99.90;;;;;;4971705;28;20278;-75
2023/12/29 05:23:02;;;;;;;3.40;0.90;;;13.80;99.90;;;;;;4954177;28;20577;-75
2023/12/29 05:25:28;;;;;;;4.90;0.77;;;13.70;99.90;;;;;;4953941;28;20610;-75
2023/12/29 05:27:53;;;;;;;2.33;0.70;;;13.70;99.90;;;;;;4971579;28;20184;-75
2023/12/29 05:30:19;;;;;;;4.30;1.00;;;13.70;99.90;;;;;;4971888;28;20204;-76
2023/12/29 05:32:45;;;;;;;2.33;0.70;;;13.60;99.90;;;;;;4971453;28;20203;-75
2023/12/29 05:35:10;;;;;;;3.30;1.33;;;13.50;99.90;;;;;;4970165;28;20226;-76
2023/12/29 05:37:36;;;;;;;2.60;0.90;;;13.50;99.90;;;;;;4971703;28;20171;-75
2023/12/29 05:40:02;;;;;;;4.07;0.80;;;13.50;99.90;;;;;;4971394;28;20211;-75
2023/12/29 05:42:28;;;;;;;5.17;1.20;;;13.50;99.90;;;;;;4979640;28;20292;-75
2023/12/29 05:44:53;;;;;;;3.13;0.80;;;13.40;99.90;;;;;;4955208;28;20957;-75
2023/12/29 05:47:19;;;;;;;2.67;1.00;;;13.40;99.90;;;;;;4978255;28;20214;-76
2023/12/29 05:49:45;;;;;;;2.97;0.80;;;13.30;99.90;;;;;;4954168;28;20638;-75
2023/12/29 05:52:11;;;;;;;3.47;1.00;;;13.30;99.90;;;;;;4969994;28;20577;-76
2023/12/29 05:54:36;;;;;;;2.30;0.80;;;13.30;99.90;;;;;;4971073;28;20190;-75
2023/12/29 05:57:02;;;;;;;4.70;0.77;;;13.20;99.90;;;;;;4955238;28;20215;-75
2023/12/29 05:59:28;;;;;;;3.33;0.82;;;13.20;99.90;;;;;;4968833;28;20264;-75
2023/12/29 06:01:54;;;;;;;5.57;1.10;;;13.10;99.90;;;;;;4953669;28;20192;-75
2023/12/29 06:04:20;;;;;;;3.03;0.80;;;13.10;99.90;;;;;;4972964;28;20175;-76
2023/12/29 06:06:46;;;;;;;2.60;0.80;;;13.10;99.90;;;;;;4969825;28;20597;-76
2023/12/29 06:09:12;;;;;;;3.60;0.73;;;13.00;99.90;;;;;;4973714;28;20590;-76
2023/12/29 06:11:38;;;;;;;3.67;0.80;;;13.00;99.90;;;;;;4976819;28;20685;-76
2023/12/29 06:14:04;;;;;;;2.43;0.60;;;13.00;99.90;;;;;;4980126;28;20256;-75
2023/12/29 06:16:30;;;;;;;7.33;1.17;;;13.00;99.90;;;;;;4990076;28;20225;-76
2023/12/29 06:18:56;;;;;;;4.20;1.07;;;13.00;99.90;;;;;;4973186;28;20586;-76
2023/12/29 06:21:22;;;;;;;2.03;0.70;;;12.90;99.90;;;;;;4989142;28;20960;-76
2023/12/29 06:23:48;;;;;;;3.90;0.80;;;13.00;99.90;;;;;;4975578;28;20214;-76
2023/12/29 06:26:15;;;;;;;3.55;0.80;;;12.90;99.90;;;;;;4972993;28;20175;-76
2023/12/29 06:28:41;;;;;;;6.53;0.90;;;12.90;99.90;;;;;;4976687;28;20240;-76
2023/12/29 06:31:07;;;;;;;4.83;0.77;;;12.90;99.90;;;;;;4976265;28;20538;-76
2023/12/29 06:33:33;;;;;;;3.40;0.67;;;12.90;99.90;;;;;;4976359;28;20201;-76
2023/12/29 06:35:59;;;;;;;4.93;1.00;;;12.90;99.90;;;;;;4975955;28;21505;-76
2023/12/29 06:38:24;;;;;;;1.93;0.67;;;12.90;99.90;;;;;;4976616;28;20183;-76
2023/12/29 06:40:50;;;;;;;1.80;0.70;;;12.90;99.90;;;;;;4976443;28;20187;-76
2023/12/29 06:43:16;;;;;;;2.73;0.63;;;12.90;99.90;;;;;;4993528;28;20199;-76
2023/12/29 06:45:42;;;;;;;2.67;0.67;;;12.90;99.90;;;;;;4976082;28;20183;-76
2023/12/29 06:48:07;;;;;;;2.10;0.60;;;13.00;99.90;;;;;;4992459;28;20963;-76
2023/12/29 06:50:33;;;;;;;2.20;0.90;;;13.00;99.90;;;;;;4976501;28;20205;-76
2023/12/29 06:52:59;;;;;;;2.83;0.70;;;13.00;99.90;;;;;;4993613;28;20202;-76
2023/12/29 06:55:25;;;;;;;3.93;0.90;;;13.00;99.90;;;;;;4991980;28;20210;-76
2023/12/29 06:57:51;;;;;;;6.20;0.80;;;13.00;99.90;;;;;;4992127;28;20186;-76
2023/12/29 07:00:17;;;;;;;3.40;0.73;;;13.00;99.90;;;;;;4994958;28;20594;-76
2023/12/29 07:02:43;;;;;;;4.55;0.95;;;13.10;99.90;;;;;;4993521;28;20210;-76
2023/12/29 07:05:09;;;;;;;2.97;0.77;;;13.10;99.90;;;;;;4975347;28;20244;-76
2023/12/29 07:07:35;;;;;;;2.40;0.60;;;13.10;99.90;;;;;;4975916;28;20194;-76
2023/12/29 07:10:02;;;;;;;3.10;0.60;;;13.10;99.90;;;;;;4975744;28;20945;-75
2023/12/29 07:12:28;;;;;;;3.60;0.80;;;13.10;99.90;;;;;;4975618;28;20637;-76
2023/12/29 07:14:54;;;;;;;2.33;0.77;;;13.20;99.90;;;;;;4992969;28;21170;-75
2023/12/29 07:17:19;;;;;;;5.17;0.70;;;13.20;99.90;;;;;;4975545;28;20669;-76
2023/12/29 07:19:45;;;;;;;2.43;0.70;;;13.20;99.90;;;;;;4975698;28;20174;-76
2023/12/29 07:22:11;;;;;;;4.93;0.80;;;13.20;99.90;;;;;;4991539;28;20206;-76
2023/12/29 07:24:36;;;;;;;4.43;0.70;;;13.20;99.90;;;;;;4991512;28;20723;-76
2023/12/29 07:27:03;;;;;;;2.73;1.00;;;13.20;99.90;;;;;;4975345;28;20625;-76
2023/12/29 07:29:29;;;;;;;2.90;0.73;;;13.30;99.90;;;;;;4993082;28;20266;-76
2023/12/29 07:31:54;;;;;;;2.63;0.70;;;13.30;99.90;;;;;;4991905;28;21349;-76
2023/12/29 07:34:21;;;;;;;3.50;1.00;;;13.30;99.90;;;;;;4993103;28;20189;-75
2023/12/29 07:36:46;;;;;;;3.17;0.70;;;13.30;99.90;;;;;;4994042;28;20182;-76
2023/12/29 07:39:12;;;;;;;7.10;0.90;;;13.20;99.90;;;;;;4994476;28;20590;-75
2023/12/29 07:41:41;;;;;;;3.50;0.60;;;13.30;99.90;;;;;;4993556;28;20383;-76
2023/12/29 07:44:10;;;;;;;2.63;0.87;;;13.30;99.90;;;;;;4980075;28;20269;-78
2023/12/29 07:46:35;;;;;;;2.70;0.70;;;13.30;99.90;;;;;;4967516;28;20590;-77
2023/12/29 07:49:01;;;;;;;4.27;1.00;;;13.30;99.90;;;;;;4975619;28;20596;-76
2023/12/29 07:51:27;;;;;;;3.23;0.70;;;13.30;99.90;;;;;;4984603;28;20265;-77
2023/12/29 07:53:53;;;;;;;1.80;0.57;;;13.40;99.90;;;;;;4982038;28;20277;-77
2023/12/29 07:56:19;;;;;;;2.37;0.70;;;13.40;99.90;;;;;;4970937;28;20194;-77
2023/12/29 07:58:46;;;;;;;4.30;1.00;;;13.40;99.90;;;;;;4973899;28;20619;-77
2023/12/29 08:01:12;;;;;;;2.80;0.57;;;13.40;99.90;;;;;;4986938;28;20649;-76
2023/12/29 08:03:37;;;;;;;3.27;0.70;;;13.40;99.90;;;;;;4969639;28;20290;-76
2023/12/29 08:06:03;;;;;;;2.97;0.60;;;13.40;99.90;;;;;;4982243;28;20277;-76
2023/12/29 08:08:29;;;;;;;3.23;0.70;;;13.30;99.90;;;;;;4972818;28;20182;-76
2023/12/29 08:10:54;;;;;;;3.03;0.70;;;13.30;99.90;;;;;;4958294;28;20790;-76
2023/12/29 08:13:21;;;;;;;1.90;0.70;;;13.20;99.90;;;;;;4993286;28;20241;-76
2023/12/29 08:15:47;;;;;;;3.15;0.70;;;13.10;99.90;;;;;;4992181;28;20552;-76
2023/12/29 08:18:13;;;;;;;3.03;0.70;;;13.10;99.90;;;;;;4974344;28;20275;-77
2023/12/29 08:20:39;;;;;;;5.20;0.70;;;13.00;99.90;;;;;;4992429;28;20601;-77
2023/12/29 08:23:04;;;;;;;2.20;0.70;;;12.90;99.90;;;;;;4988063;28;20214;-76
2023/12/29 08:25:30;;;;;;;3.47;0.80;;;12.90;99.90;;;;;;4973890;28;20549;-76
2023/12/29 08:27:56;;;;;;;3.30;1.13;;;12.80;99.90;;;;;;4988993;28;20185;-76
2023/12/29 08:30:22;;;;;;;6.00;0.80;;;12.70;99.90;;;;;;4974370;28;20246;-76
2023/12/29 08:32:47;;;;;;;4.50;0.80;;;12.60;99.90;;;;;;4989522;28;20609;-76
2023/12/29 08:35:13;;;;;;;2.10;0.60;;;12.60;99.90;;;;;;4986756;28;20177;-77
2023/12/29 08:37:39;;;;;;;3.53;0.80;;;12.50;99.90;;;;;;4990561;28;20171;-76
2023/12/29 08:40:06;;;;;;;2.00;0.70;;;12.40;99.90;;;;;;4974006;28;20186;-76
2023/12/29 08:42:32;;;;;;;1.77;0.70;;;12.40;99.90;;;;;;4974069;28;20233;-76
2023/12/29 08:44:59;;;;;;;3.57;0.80;;;12.30;99.90;;;;;;4987889;28;20179;-76
2023/12/29 08:47:24;;;;;;;1.92;0.68;;;12.30;99.90;;;;;;4985572;28;20554;-77
2023/12/29 08:49:51;;;;;;;2.83;0.63;;;12.20;99.90;;;;;;4990809;28;20186;-76
2023/12/29 08:52:16;;;;;;;3.38;0.70;;;12.20;99.90;;;;;;4992325;28;20210;-76
2023/12/29 08:54:42;;;;;;;2.90;0.60;;;12.20;99.90;;;;;;4973431;28;20183;-76
2023/12/29 08:57:08;;;;;;;3.63;0.70;;;12.20;99.90;;;;;;5040828;23;20716;-75
2023/12/29 08:59:34;;;;;;;2.20;0.70;;;12.10;99.90;;;;;;5012590;28;20732;-72
2023/12/29 09:02:00;;;;;;;2.17;0.60;;;12.10;99.90;;;;;;5010773;28;20269;-71
2023/12/29 09:04:26;;;;;;;5.18;0.70;;;12.10;99.90;;;;;;5009677;28;20179;-71
2023/12/29 09:06:52;;;;;;;2.57;0.80;;;12.10;99.90;;;;;;5024358;28;20204;-73
2023/12/29 09:09:18;;;;;;;2.35;1.27;;;12.10;99.90;;;;;;5029059;28;20185;-73
2023/12/29 09:11:44;;;;;;;2.37;0.93;;;12.10;99.90;;;;;;5012220;28;20201;-74
2023/12/29 09:14:10;;;;;;;5.63;0.70;;;12.10;99.90;;;;;;5027370;28;20177;-73
2023/12/29 09:16:36;;;;;;;3.63;0.87;;;12.10;99.90;;;;;;5020611;28;20682;-73
2023/12/29 09:19:02;;;;;;;2.00;1.20;;;12.10;99.90;;;;;;5025924;28;20182;-73
2023/12/29 09:21:28;;;;;;;2.60;0.70;;;12.00;99.90;;;;;;5020202;28;20595;-73
2023/12/29 09:23:53;;;;;;;1.63;0.67;;;12.00;99.90;;;;;;5019698;28;20268;-74
2023/12/29 09:26:19;;;;;;;2.47;0.80;;;12.00;99.90;;;;;;5012019;28;20244;-74
2023/12/29 09:28:45;;;;;;;3.20;0.70;;;12.00;99.90;;;;;;5030340;28;20580;-74
2023/12/29 09:31:11;;;;;;;3.70;0.90;;;12.10;99.90;;;;;;5012205;28;20212;-74
2023/12/29 09:33:37;;;;;;;3.10;0.75;;;12.00;99.90;;;;;;5029966;28;20593;-74
2023/12/29 09:36:04;;;;;;;2.70;0.70;;;12.00;99.90;;;;;;5029627;28;20185;-74
2023/12/29 09:38:30;;;;;;;3.00;0.60;;;12.10;99.90;;;;;;5029737;28;20217;-73
2023/12/29 09:40:59;;;;;;;4.80;0.90;;;12.10;99.90;;;;;;5028938;28;20635;-74
2023/12/29 09:43:30;;;;;;;4.47;0.80;;;12.10;99.90;;;;;;5028605;28;20181;-73
2023/12/29 09:45:58;;;;;;;1.63;0.65;;;12.10;99.90;;;;;;5029604;28;20272;-72
2023/12/29 09:48:26;;;;;;;3.22;0.93;;;12.20;99.90;;;;;;5027046;28;20181;-71
2023/12/29 09:50:53;;;;;;;1.40;0.60;;;12.20;99.90;;;;;;5014945;28;20213;-72
2023/12/29 09:53:21;;;;;;;2.35;0.65;;;12.20;99.90;;;;;;5028396;28;20178;-72
2023/12/29 09:55:48;;;;;;;1.95;0.60;;;12.20;99.90;;;;;;5005008;28;20213;-73
2023/12/29 09:58:16;;;;;;;2.05;0.60;;;12.20;99.90;;;;;;5029575;28;20277;-72
2023/12/29 10:00:42;;;;;;;1.95;0.70;;;12.30;99.90;;;;;;5017118;28;20193;-73
2023/12/29 10:03:09;;;;;;;1.35;0.60;;;12.30;99.90;;;;;;5028179;28;20182;-73
2023/12/29 10:05:34;;;;;;;3.17;0.60;;;12.30;99.90;;;;;;5026409;28;21251;-73
2023/12/29 10:08:05;;;;;;;1.87;0.47;;;12.40;99.90;;;;;;5030578;28;20303;-72
2023/12/29 10:10:31;;;;;;;1.40;0.60;;;12.40;99.90;;;;;;5023715;28;20209;-73
2023/12/29 10:12:58;;;;;;;2.85;0.60;;;12.40;99.90;;;;;;5017593;28;20239;-72
2023/12/29 10:15:32;;;;;;;2.80;1.08;;;12.50;99.90;;;;;;5022065;28;20249;-73
2023/12/29 10:18:22;;;;;;;2.97;0.50;;;12.50;99.90;;;;;;5022057;28;20504;-72
2023/12/29 10:21:04;;;;;;;2.10;0.60;;;12.50;99.90;;;;;;5041238;28;20308;-73
2023/12/29 10:24:05;;;;;;;1.20;0.40;;;12.50;99.90;;;;;;5023426;28;20221;-72
2023/12/29 10:26:31;;;;;;;2.22;0.50;;;12.60;99.90;;;;;;5018824;28;20221;-72
2023/12/29 10:28:58;;;;;;;1.53;0.47;;;12.60;99.90;;;;;;5024224;28;20186;-72
2023/12/29 10:31:24;;;;;;;1.58;0.50;;;12.60;99.90;;;;;;5022512;28;20640;-72
2023/12/29 10:33:51;;;;;;;3.63;0.57;;;12.70;99.90;;;;;;5008220;28;20170;-72
2023/12/29 10:36:17;;;;;;;1.53;0.50;;;12.80;99.90;;;;;;5022877;28;20243;-72
2023/12/29 10:38:43;;;;;;;2.33;0.50;;;12.80;99.90;;;;;;5021847;28;21031;-72
2023/12/29 10:41:13;;;;;;;2.00;0.50;;;12.90;99.90;;;;;;5021651;28;20269;-72
2023/12/29 10:43:43;;;;;;;1.80;0.50;;;12.90;99.90;;;;;;5023706;28;20593;-72
2023/12/29 10:46:11;;;;;;;1.30;0.60;;;13.00;99.90;;;;;;5032612;28;20589;-72
2023/12/29 10:48:37;;;;;;;1.20;0.52;;;13.00;99.90;;;;;;5019308;28;20662;-72
2023/12/29 10:51:04;;;;;;;1.37;0.50;;;13.10;99.90;;;;;;5024799;28;20212;-73
2023/12/29 10:53:34;;;;;;;3.70;0.60;;;13.10;99.90;;;;;;5029423;28;20600;-73
2023/12/29 10:55:59;;;;;;;1.50;0.57;;;13.10;99.90;;;;;;5029742;28;21196;-72
2023/12/29 10:58:28;;;;;;;2.70;0.63;;;13.10;99.90;;;;;;5020831;28;20600;-72
2023/12/29 11:00:59;;;;;;;2.83;0.93;;;13.20;99.90;;;;;;5029072;28;20595;-72
2023/12/29 11:03:25;;;;;;;1.33;0.67;;;13.20;99.90;;;;;;5032857;28;20631;-74
2023/12/29 11:06:01;;;;;;;3.23;0.70;;;13.30;99.90;;;;;;5015649;28;21433;-74
2023/12/29 11:08:27;;;;;;;4.70;0.60;;;13.30;99.90;;;;;;5021151;28;20611;-73
2023/12/29 11:10:54;;;;;;;2.53;0.50;;;13.40;99.90;;;;;;5017339;28;20633;-72
2023/12/29 11:13:20;;;;;;;2.80;0.50;;;13.40;99.90;;;;;;5028524;28;20558;-73
2023/12/29 11:15:46;;;;;;;1.20;0.50;;;13.40;99.90;;;;;;5031910;28;20666;-73
2023/12/29 11:18:16;;;;;;;2.60;0.60;;;13.50;99.90;;;;;;5024199;28;20651;-73
2023/12/29 11:20:44;;;;;;;5.27;0.50;;;13.50;99.90;;;;;;5031971;28;20602;-73
2023/12/29 11:23:13;;;;;;;1.93;0.60;;;13.50;99.90;;;;;;5022617;28;20581;-73
2023/12/29 11:25:39;;;;;;;1.93;0.70;;;13.60;99.90;;;;;;5031540;28;21011;-73
2023/12/29 11:28:11;;;;;;;1.40;0.60;;;13.70;99.90;;;;;;5032141;28;20568;-72
2023/12/29 11:30:39;;;;;;;1.97;0.40;;;13.80;99.90;;;;;;5030851;28;20682;-73
2023/12/29 11:33:15;;;;;;;1.30;0.60;;;13.90;99.90;;;;;;5032196;28;20965;-73
2023/12/29 11:36:04;;;;;;;1.87;0.60;;;14.00;99.90;;;;;;5023348;28;20660;-73
2023/12/29 11:38:49;;;;;;;1.80;0.60;;;14.10;99.90;;;;;;5032037;28;20569;-72
2023/12/29 11:41:27;;;;;;;1.50;0.50;;;14.20;99.90;;;;;;5008694;28;20923;-72
2023/12/29 11:44:00;;;;;;;1.37;0.57;;;14.30;99.90;;;;;;5021506;28;20734;-73
2023/12/29 11:46:37;;;;;;;2.27;0.50;;;14.40;99.90;;;;;;5021671;28;20660;-72
2023/12/29 11:49:04;;;;;;;1.10;0.40;;;14.40;99.90;;;;;;5016872;28;20588;-73
2023/12/29 11:51:50;;;;;;;1.20;0.40;;;14.60;99.90;;;;;;5030273;28;20695;-73
2023/12/29 11:54:24;;;;;;;1.50;0.50;;;14.60;99.90;;;;;;5010607;28;20665;-73
2023/12/29 11:56:53;;;;;;;1.80;0.53;;;14.70;99.90;;;;;;5010914;28;20671;-73
2023/12/29 11:59:24;;;;;;;1.60;0.70;;;14.80;99.90;;;;;;5020040;28;20593;-72
2023/12/29 12:01:55;;;;;;;1.90;0.80;;;14.80;99.90;;;;;;5027633;28;20711;-73
2023/12/29 12:04:43;;;;;;;2.27;0.70;;;14.80;99.90;;;;;;5040064;28;20594;-73
2023/12/29 12:07:22;;;;;;;1.63;0.70;;;14.90;99.90;;;;;;5006734;28;20609;-73
2023/12/29 12:09:52;;;;;;;1.90;0.80;;;14.90;99.90;;;;;;5023898;28;20600;-73
2023/12/29 12:12:40;;;;;;;3.87;2.03;;;14.90;99.90;;;;;;5025805;28;21386;-73
2023/12/29 12:15:26;;;;;;;3.73;1.93;;;14.90;99.90;;;;;;5012995;28;20581;-73
2023/12/29 12:17:53;;;;;;;2.43;0.90;;;14.90;99.90;;;;;;4999485;28;20734;-73
2023/12/29 12:20:19;;;;;;;2.23;0.60;;;15.00;99.90;;;;;;5028359;28;20717;-73
2023/12/29 12:22:48;;;;;;;1.60;0.50;;;15.00;99.90;;;;;;5031059;28;20647;-73
2023/12/29 12:25:14;;;;;;;1.50;0.60;;;14.90;99.90;;;;;;5029040;28;20599;-73
2023/12/29 12:27:39;;;;;;;2.00;0.80;;;14.90;99.90;;;;;;5030946;28;20939;-73
2023/12/29 12:30:06;;;;;;;1.60;0.67;;;14.90;99.90;;;;;;5030715;28;20591;-73
2023/12/29 12:32:32;;;;;;;3.47;0.50;;;14.80;99.90;;;;;;5005002;28;20181;-73
2023/12/29 12:34:57;;;;;;;1.70;0.50;;;14.90;99.90;;;;;;5029219;28;20946;-73
2023/12/29 12:37:28;;;;;;;1.20;0.47;;;14.80;99.90;;;;;;5026600;28;20622;-73
2023/12/29 12:39:54;;;;;;;1.23;0.50;;;14.80;99.90;;;;;;5029393;28;20284;-72
2023/12/29 12:42:20;;;;;;;1.40;0.40;;;14.90;99.90;;;;;;5030511;28;20695;-73
2023/12/29 12:45:06;;;;;;;2.40;0.50;;;14.90;99.90;;;;;;5031558;28;20609;-72
2023/12/29 12:47:44;;;;;;;1.87;0.70;;;14.80;99.90;;;;;;5013017;28;20620;-73
2023/12/29 12:50:12;;;;;;;1.20;0.50;;;14.90;99.90;;;;;;5024705;28;21361;-72
2023/12/29 12:52:39;;;;;;;2.10;0.60;;;14.90;99.90;;;;;;5015477;28;20577;-73